Time;durP1;ratioP1;P1;durP2;ratioP2;P2;SDS_P1;SDS_P2;PMS_P1;PMS_P2;Temp;Humidity;BMP_temperature;BMP_pressure;BME280_temperature;BME280_humidity;BME280_pressure;Samples;Min_cycle;Max_cycle;Signal;HPM_P1;HPM_P2
2023/10/04 00:02:56;;;;;;;4.50;2.20;;;;;;;13.44;100.00;101798.59;6251815;28;20551;-74
2023/10/04 00:06:18;;;;;;;4.67;2.77;;;;;;;13.42;100.00;101807.84;6250344;28;20225;-74
2023/10/04 00:09:39;;;;;;;2.93;2.37;;;;;;;13.38;100.00;101822.66;6252278;28;20756;-73
2023/10/04 00:13:01;;;;;;;2.90;1.90;;;;;;;13.41;100.00;101814.28;6250746;28;20675;-74
2023/10/04 00:16:23;;;;;;;3.33;2.03;;;;;;;13.46;100.00;101806.59;6245608;28;20807;-74
2023/10/04 00:19:44;;;;;;;3.70;2.17;;;;;;;13.55;100.00;101814.81;6245365;28;20328;-74
2023/10/04 00:23:05;;;;;;;2.57;1.43;;;;;;;13.53;100.00;101802.38;6256529;28;20231;-74
2023/10/04 00:26:26;;;;;;;6.60;3.20;;;;;;;13.56;100.00;101819.22;6247306;28;20299;-73
2023/10/04 00:29:49;;;;;;;5.97;2.50;;;;;;;13.55;100.00;101822.94;6261054;28;20228;-73
2023/10/04 00:33:11;;;;;;;3.00;1.93;;;;;;;13.55;100.00;101824.78;6252762;28;20342;-73
2023/10/04 00:36:33;;;;;;;7.57;2.70;;;;;;;13.59;100.00;101823.50;6249537;28;20318;-73
2023/10/04 00:39:54;;;;;;;2.20;1.93;;;;;;;13.63;100.00;101833.09;6251528;28;20231;-73
2023/10/04 00:43:19;;;;;;;5.37;2.00;;;;;;;13.56;100.00;101831.88;6263933;28;20645;-74
2023/10/04 00:46:45;;;;;;;2.13;1.80;;;;;;;13.47;100.00;101849.81;6254639;28;20224;-73
2023/10/04 00:50:14;;;;;;;3.50;2.83;;;;;;;13.43;100.00;101839.38;6256894;28;20487;-73
2023/10/04 00:53:36;;;;;;;6.73;1.70;;;;;;;13.43;100.00;101844.78;6255828;28;20231;-73
2023/10/04 00:56:57;;;;;;;4.33;1.53;;;;;;;13.36;100.00;101844.44;6257554;28;20228;-73
2023/10/04 01:00:19;;;;;;;4.43;2.40;;;;;;;13.41;100.00;101849.47;6257390;28;20604;-73
2023/10/04 01:03:41;;;;;;;3.00;1.63;;;;;;;13.43;100.00;101844.78;6284365;28;20231;-72
2023/10/04 01:07:04;;;;;;;4.90;1.80;;;;;;;13.35;100.00;101853.56;6270219;28;20252;-73
2023/10/04 01:10:30;;;;;;;4.83;2.20;;;;;;;13.34;100.00;101846.44;6253578;28;20224;-73
2023/10/04 01:14:09;;;;;;;4.63;1.73;;;;;;;13.38;100.00;101837.06;6257213;28;20235;-74
2023/10/04 01:17:35;;;;;;;4.73;2.10;;;;;;;13.36;100.00;101846.28;6271266;28;20226;-73
2023/10/04 01:20:57;;;;;;;5.77;1.87;;;;;;;13.43;100.00;101858.34;6252907;28;20672;-74
2023/10/04 01:24:20;;;;;;;4.37;2.27;;;;;;;13.37;100.00;101857.00;6255309;28;20249;-74
2023/10/04 01:27:41;;;;;;;2.60;2.30;;;;;;;13.31;100.00;101862.06;6253464;28;20239;-73
2023/10/04 01:31:02;;;;;;;3.47;1.33;;;;;;;13.31;100.00;101853.94;6252029;28;20608;-73
2023/10/04 01:34:23;;;;;;;2.87;1.60;;;;;;;13.27;100.00;101855.19;6257124;28;20247;-74
2023/10/04 01:37:44;;;;;;;4.10;1.63;;;;;;;13.33;100.00;101835.75;6250164;28;20235;-73
2023/10/04 01:41:06;;;;;;;4.53;1.83;;;;;;;13.29;100.00;101847.78;6247993;28;20562;-74
2023/10/04 01:44:28;;;;;;;3.63;1.93;;;;;;;13.26;100.00;101861.59;6242151;28;20240;-73
2023/10/04 01:47:50;;;;;;;3.30;2.13;;;;;;;13.27;100.00;101861.47;6245469;28;20215;-73
2023/10/04 01:51:12;;;;;;;4.50;2.03;;;;;;;13.30;100.00;101860.34;6251252;28;20228;-74
2023/10/04 01:54:33;;;;;;;5.10;2.03;;;;;;;13.30;100.00;101865.78;6242327;28;20231;-74
2023/10/04 01:57:55;;;;;;;4.03;1.90;;;;;;;13.30;100.00;101869.34;6240259;28;20232;-73
2023/10/04 02:01:16;;;;;;;2.53;2.07;;;;;;;13.28;100.00;101860.50;6247280;28;20232;-74
2023/10/04 02:04:37;;;;;;;6.37;2.10;;;;;;;13.28;100.00;101856.91;6246670;28;20236;-74
2023/10/04 02:07:59;;;;;;;3.40;2.10;;;;;;;13.29;100.00;101853.22;6244822;28;20227;-74
2023/10/04 02:11:21;;;;;;;2.60;1.73;;;;;;;13.28;100.00;101854.22;6255727;28;20594;-73
2023/10/04 02:14:44;;;;;;;10.73;2.60;;;;;;;13.31;100.00;101859.34;6252688;28;20286;-73
2023/10/04 02:18:05;;;;;;;5.50;2.10;;;;;;;13.26;100.00;101848.06;6252467;28;20224;-73
2023/10/04 02:21:26;;;;;;;4.80;1.60;;;;;;;13.25;100.00;101852.63;6247686;28;20228;-73
2023/10/04 02:24:47;;;;;;;3.57;2.50;;;;;;;13.20;100.00;101854.88;6252384;28;20228;-73
2023/10/04 02:28:11;;;;;;;7.23;2.90;;;;;;;13.24;100.00;101831.09;6247268;28;20228;-74
2023/10/04 02:31:34;;;;;;;2.10;2.00;;;;;;;13.21;100.00;101856.56;6258762;28;20578;-73
2023/10/04 02:34:57;;;;;;;3.80;2.00;;;;;;;13.23;100.00;101849.19;6248543;28;20343;-74
2023/10/04 02:38:23;;;;;;;5.30;2.47;;;;;;;13.20;100.00;101852.16;6257080;28;20223;-74
2023/10/04 02:41:47;;;;;;;4.03;1.67;;;;;;;13.21;100.00;101848.44;6255053;28;20318;-73
2023/10/04 02:45:13;;;;;;;3.70;2.70;;;;;;;13.22;100.00;101855.59;6250022;28;20241;-72
2023/10/04 02:48:35;;;;;;;4.30;1.60;;;;;;;13.27;100.00;101864.19;6250359;28;20235;-72
2023/10/04 02:51:56;;;;;;;3.07;2.47;;;;;;;13.22;100.00;101860.16;6257365;28;20236;-73
2023/10/04 02:55:19;;;;;;;17.50;3.07;;;;;;;13.22;100.00;101871.84;6251244;28;20239;-73
2023/10/04 02:58:41;;;;;;;4.43;1.60;;;;;;;13.24;100.00;101861.75;6254854;28;20235;-73
2023/10/04 03:02:03;;;;;;;4.57;1.50;;;;;;;13.26;100.00;101858.91;6260240;28;20224;-73
2023/10/04 03:05:29;;;;;;;4.43;2.30;;;;;;;13.22;100.00;101866.44;6245133;28;20599;-74
2023/10/04 03:08:52;;;;;;;2.87;1.67;;;;;;;13.21;100.00;101863.81;6254518;28;20236;-74
2023/10/04 03:12:15;;;;;;;6.97;2.40;;;;;;;13.16;100.00;101856.09;6267395;28;20229;-76
2023/10/04 03:15:36;;;;;;;5.03;2.10;;;;;;;13.11;100.00;101852.94;6247179;28;20510;-75
2023/10/04 03:18:58;;;;;;;4.40;2.43;;;;;;;13.13;100.00;101855.50;6247078;28;20310;-73
2023/10/04 03:22:22;;;;;;;3.90;1.60;;;;;;;13.12;100.00;101861.91;6258986;28;20233;-73
2023/10/04 03:25:45;;;;;;;6.63;2.60;;;;;;;13.11;100.00;101869.16;6261533;28;20635;-73
2023/10/04 03:29:07;;;;;;;4.67;1.90;;;;;;;13.09;100.00;101859.44;6242275;28;20236;-73
2023/10/04 03:32:29;;;;;;;4.97;2.17;;;;;;;13.13;100.00;101874.44;6249011;28;20232;-73
2023/10/04 03:35:53;;;;;;;5.03;2.13;;;;;;;13.07;100.00;101866.84;6243428;28;20228;-73
2023/10/04 03:39:16;;;;;;;3.80;2.70;;;;;;;13.10;100.00;101882.84;6271845;28;20570;-73
2023/10/04 03:42:41;;;;;;;7.23;2.17;;;;;;;13.10;100.00;101883.69;6281594;28;20229;-73
2023/10/04 03:46:16;;;;;;;5.37;2.67;;;;;;;13.05;100.00;101877.81;6270859;28;20224;-73
2023/10/04 03:49:37;;;;;;;3.23;2.47;;;;;;;13.03;100.00;101892.41;6265975;28;20251;-73
2023/10/04 03:52:58;;;;;;;2.20;1.83;;;;;;;13.03;100.00;101892.41;6279037;28;20227;-73
2023/10/04 03:56:22;;;;;;;7.70;2.37;;;;;;;13.02;100.00;101896.97;6286257;28;20680;-73
2023/10/04 03:59:45;;;;;;;3.57;2.57;;;;;;;13.03;100.00;101887.88;6275529;28;20321;-73
2023/10/04 04:03:06;;;;;;;5.00;2.30;;;;;;;13.10;100.00;101882.84;6274006;28;20269;-73
2023/10/04 04:06:27;;;;;;;6.97;2.67;;;;;;;13.06;100.00;101892.22;6254889;28;20231;-73
2023/10/04 04:09:48;;;;;;;4.93;2.43;;;;;;;13.01;100.00;101891.69;6254888;28;20606;-71
2023/10/04 04:13:11;;;;;;;3.63;2.30;;;;;;;13.02;100.00;101886.13;6253174;28;20235;-73
2023/10/04 04:16:32;;;;;;;9.63;2.83;;;;;;;13.00;100.00;101882.69;6265659;28;22096;-73
2023/10/04 04:19:54;;;;;;;7.00;2.63;;;;;;;13.00;100.00;101901.63;6268404;28;20251;-72
2023/10/04 04:23:15;;;;;;;4.17;2.17;;;;;;;13.01;100.00;101906.09;6272457;28;20230;-74
2023/10/04 04:26:41;;;;;;;4.10;2.10;;;;;;;12.98;100.00;101908.16;6293720;28;20671;-74
2023/10/04 04:30:05;;;;;;;4.50;2.43;;;;;;;13.01;100.00;101910.63;6274357;28;20603;-74
2023/10/04 04:33:29;;;;;;;3.63;1.93;;;;;;;13.02;100.00;101923.16;6268169;28;20251;-74
2023/10/04 04:36:51;;;;;;;4.90;2.30;;;;;;;12.99;100.00;101916.19;6281058;28;20579;-74
2023/10/04 04:40:17;;;;;;;12.33;2.00;;;;;;;13.00;100.00;101917.00;6265732;28;20235;-74
2023/10/04 04:43:38;;;;;;;4.20;2.57;;;;;;;13.03;100.00;101920.34;6263110;28;20234;-73
2023/10/04 04:47:04;;;;;;;4.43;2.00;;;;;;;13.08;100.00;101925.44;6289881;28;20254;-74
2023/10/04 04:50:25;;;;;;;6.17;2.50;;;;;;;13.14;100.00;101933.88;6267138;28;20601;-73
2023/10/04 04:53:47;;;;;;;9.83;3.83;;;;;;;13.05;100.00;101940.06;6272252;28;20239;-72
2023/10/04 04:57:11;;;;;;;4.83;2.17;;;;;;;13.09;100.00;101940.66;6271487;28;25113;-73
2023/10/04 05:00:33;;;;;;;5.73;2.10;;;;;;;13.01;100.00;101938.56;6250211;28;20322;-72
2023/10/04 05:03:55;;;;;;;4.90;2.57;;;;;;;13.01;100.00;101954.81;6236178;28;20236;-74
2023/10/04 05:07:16;;;;;;;7.73;2.63;;;;;;;12.92;100.00;101955.56;6242269;28;20228;-73
2023/10/04 05:10:38;;;;;;;6.07;2.37;;;;;;;13.00;100.00;101958.50;6242860;28;20232;-74
2023/10/04 05:13:59;;;;;;;8.33;2.47;;;;;;;12.94;100.00;101952.72;6247533;28;20221;-74
2023/10/04 05:17:20;;;;;;;5.77;3.27;;;;;;;12.87;100.00;101962.34;6241884;28;20314;-74
2023/10/04 05:20:43;;;;;;;4.23;1.90;;;;;;;12.82;100.00;101960.00;6239392;28;20753;-74
2023/10/04 05:24:05;;;;;;;6.93;1.90;;;;;;;12.84;100.00;101945.34;6253214;28;20229;-73
2023/10/04 05:27:26;;;;;;;4.37;2.07;;;;;;;12.86;100.00;101964.16;6243837;28;20223;-73
2023/10/04 05:30:48;;;;;;;3.07;2.20;;;;;;;12.90;100.00;101959.34;6243466;28;20231;-74
2023/10/04 05:34:09;;;;;;;1.77;1.57;;;;;;;12.82;100.00;101966.28;6242000;28;20587;-74
2023/10/04 05:37:31;;;;;;;3.87;1.87;;;;;;;12.90;100.00;101967.47;6241170;28;20232;-74
2023/10/04 05:40:52;;;;;;;5.17;2.10;;;;;;;12.87;100.00;101975.88;6249589;28;20240;-74
2023/10/04 05:44:13;;;;;;;4.27;3.10;;;;;;;12.82;100.00;101965.41;6244878;28;20254;-74
2023/10/04 05:47:34;;;;;;;6.60;3.17;;;;;;;12.85;100.00;101976.84;6245086;28;20232;-73
2023/10/04 05:50:57;;;;;;;11.77;3.07;;;;;;;12.81;100.00;101972.66;6242055;28;20232;-74
2023/10/04 05:54:20;;;;;;;3.43;1.90;;;;;;;12.87;100.00;101986.69;6248182;28;20232;-73
2023/10/04 05:57:41;;;;;;;4.60;2.13;;;;;;;12.84;100.00;101985.97;6245652;28;20224;-74
2023/10/04 06:01:02;;;;;;;11.43;2.70;;;;;;;12.92;100.00;101996.16;6247713;28;20232;-74
2023/10/04 06:04:24;;;;;;;4.67;2.27;;;;;;;12.90;100.00;101981.00;6232932;28;20259;-74
2023/10/04 06:07:46;;;;;;;4.30;2.13;;;;;;;12.87;100.00;101994.81;6245004;28;20609;-73
2023/10/04 06:11:08;;;;;;;4.00;2.67;;;;;;;12.91;100.00;101989.03;6252798;28;20314;-73
2023/10/04 06:14:29;;;;;;;3.97;2.83;;;;;;;12.90;100.00;101997.25;6241422;28;20228;-74
2023/10/04 06:17:50;;;;;;;13.97;3.83;;;;;;;12.91;100.00;102009.81;6251708;28;20232;-73
2023/10/04 06:21:11;;;;;;;5.17;2.57;;;;;;;12.97;100.00;102012.91;6231917;28;21000;-72
2023/10/04 06:24:32;;;;;;;3.83;2.47;;;;;;;13.06;100.00;102016.75;6236170;28;20228;-73
2023/10/04 06:27:56;;;;;;;6.17;1.87;;;;;;;13.14;100.00;102020.50;6245458;28;20227;-73
2023/10/04 06:31:17;;;;;;;5.07;1.97;;;;;;;13.18;100.00;102019.31;6239681;28;20258;-72
2023/10/04 06:34:38;;;;;;;6.50;2.97;;;;;;;13.16;100.00;102037.50;6246296;28;20228;-72
2023/10/04 06:38:01;;;;;;;4.60;2.77;;;;;;;13.18;100.00;102037.41;6242560;28;20232;-72
2023/10/04 06:41:25;;;;;;;5.00;2.50;;;;;;;13.22;100.00;102037.03;6243570;28;22953;-72
2023/10/04 06:44:49;;;;;;;4.07;2.63;;;;;;;13.26;100.00;102052.03;6263050;28;20227;-73
2023/10/04 06:48:10;;;;;;;7.17;1.70;;;;;;;13.27;100.00;102059.16;6270059;28;20227;-72
2023/10/04 06:51:31;;;;;;;7.20;2.70;;;;;;;13.36;100.00;102060.25;6257929;28;20668;-69
2023/10/04 06:54:52;;;;;;;3.77;2.93;;;;;;;13.44;100.00;102064.06;6273617;28;20786;-70
2023/10/04 06:58:13;;;;;;;8.43;3.13;;;;;;;13.48;100.00;102061.97;6275508;28;20239;-70
2023/10/04 07:01:35;;;;;;;8.50;3.13;;;;;;;13.66;100.00;102063.19;6280545;28;20563;-70
2023/10/04 07:04:56;;;;;;;4.23;3.20;;;;;;;13.74;100.00;102079.66;6281611;28;20227;-71
2023/10/04 07:08:17;;;;;;;5.87;2.47;;;;;;;13.49;100.00;102070.00;6281765;28;20616;-69
2023/10/04 07:11:38;;;;;;;4.77;2.70;;;;;;;13.64;100.00;102076.84;6286415;28;20224;-70
2023/10/04 07:14:59;;;;;;;6.03;2.50;;;;;;;13.62;100.00;102084.22;6263861;28;20235;-69
2023/10/04 07:18:21;;;;;;;6.83;2.77;;;;;;;13.68;100.00;102091.00;6297161;28;20509;-70
2023/10/04 07:21:45;;;;;;;3.87;2.23;;;;;;;13.76;100.00;102068.69;6272122;28;20291;-71
2023/10/04 07:25:08;;;;;;;7.07;2.90;;;;;;;13.71;100.00;102093.44;6493613;23;20229;-69
2023/10/04 07:28:29;;;;;;;4.13;2.00;;;;;;;13.85;100.00;102104.00;6222281;28;20236;-70
2023/10/04 07:31:51;;;;;;;5.60;2.97;;;;;;;13.93;100.00;102098.84;6225160;28;20343;-70
2023/10/04 07:35:16;;;;;;;3.33;1.80;;;;;;;13.89;100.00;102118.19;6222965;28;20232;-70
2023/10/04 07:38:37;;;;;;;11.60;2.33;;;;;;;13.99;100.00;102121.84;6235437;28;20237;-69
2023/10/04 07:41:58;;;;;;;7.20;2.60;;;;;;;13.88;100.00;102108.31;6236094;28;20233;-69
2023/10/04 07:45:19;;;;;;;6.43;2.40;;;;;;;13.97;100.00;102122.00;6231188;28;20244;-71
2023/10/04 07:48:42;;;;;;;8.10;2.73;;;;;;;14.30;100.00;102121.03;6228316;28;20232;-71
2023/10/04 07:52:05;;;;;;;4.27;2.40;;;;;;;14.47;100.00;102125.03;6238010;28;20228;-70
2023/10/04 07:55:26;;;;;;;2.93;2.23;;;;;;;14.55;99.79;102117.97;6232014;28;20504;-70
2023/10/04 07:58:47;;;;;;;4.97;1.77;;;;;;;14.41;99.25;102132.69;6233601;28;20236;-70
2023/10/04 08:02:08;;;;;;;3.03;2.33;;;;;;;14.67;98.35;102133.19;6237118;28;20233;-70
2023/10/04 08:05:31;;;;;;;2.60;2.00;;;;;;;14.36;98.39;102137.66;6230661;28;20315;-70
2023/10/04 08:08:53;;;;;;;10.00;2.80;;;;;;;14.64;98.26;102138.91;6232684;28;20236;-71
2023/10/04 08:12:14;;;;;;;7.53;3.40;;;;;;;14.69;97.54;102149.34;6232817;28;20339;-70
2023/10/04 08:15:36;;;;;;;4.30;2.60;;;;;;;14.78;97.12;102148.56;6232349;28;20652;-70
2023/10/04 08:18:57;;;;;;;10.80;3.30;;;;;;;14.94;96.47;102140.78;6241457;28;20232;-71
2023/10/04 08:22:18;;;;;;;4.10;2.93;;;;;;;15.09;95.65;102142.19;6243338;28;20239;-71
2023/10/04 08:25:40;;;;;;;5.40;2.40;;;;;;;15.11;95.12;102149.22;6234636;28;20252;-71
2023/10/04 08:29:05;;;;;;;7.43;3.00;;;;;;;15.04;95.29;102149.88;6232895;28;20327;-70
2023/10/04 08:32:27;;;;;;;6.63;2.67;;;;;;;15.38;93.72;102153.19;6223555;28;20228;-71
2023/10/04 08:35:48;;;;;;;3.40;1.60;;;;;;;15.66;93.02;102153.38;6229729;28;20236;-71
2023/10/04 08:39:10;;;;;;;7.63;3.13;;;;;;;15.62;92.65;102159.22;6231120;28;20499;-71
2023/10/04 08:42:33;;;;;;;7.73;3.53;;;;;;;15.94;92.19;102149.00;6228403;28;20236;-70
2023/10/04 08:45:57;;;;;;;10.43;2.87;;;;;;;15.89;90.38;102157.59;6234586;28;20548;-70
2023/10/04 08:49:22;;;;;;;6.90;3.50;;;;;;;15.62;90.41;102162.81;6221836;28;20228;-69
2023/10/04 08:52:47;;;;;;;6.90;2.27;;;;;;;15.87;89.62;102145.97;6231482;28;21622;-70
2023/10/04 08:56:11;;;;;;;4.43;1.77;;;;;;;15.89;89.90;102157.59;6229371;28;20500;-70
2023/10/04 08:59:35;;;;;;;3.27;1.80;;;;;;;15.91;89.09;102163.75;6231335;28;20228;-70
2023/10/04 09:02:57;;;;;;;10.17;2.57;;;;;;;16.16;88.31;102161.50;6228659;28;20673;-70
2023/10/04 09:06:18;;;;;;;11.83;2.60;;;;;;;16.25;87.84;102160.66;6225567;28;20339;-70
2023/10/04 09:09:39;;;;;;;7.13;2.77;;;;;;;16.25;87.02;102145.19;6232490;28;20248;-70
2023/10/04 09:13:03;;;;;;;3.50;2.00;;;;;;;16.71;85.59;102155.38;6230977;28;20312;-71
2023/10/04 09:16:28;;;;;;;8.60;2.77;;;;;;;16.39;85.75;102147.50;6225518;28;20237;-69
2023/10/04 09:19:49;;;;;;;15.70;3.40;;;;;;;16.30;85.62;102132.00;6235207;28;20221;-69
2023/10/04 09:23:22;;;;;;;6.60;2.60;;;;;;;16.58;85.32;102152.97;6228841;28;20248;-71
2023/10/04 09:26:52;;;;;;;7.82;2.97;;;;;;;16.82;83.50;102149.78;6221349;28;20228;-70
2023/10/04 09:30:21;;;;;;;5.07;2.83;;;;;;;16.66;83.79;102146.81;6232798;28;20323;-70
2023/10/04 09:33:45;;;;;;;4.83;2.00;;;;;;;17.08;83.13;102150.91;6220481;28;20224;-70
2023/10/04 09:37:18;;;;;;;10.40;2.42;;;;;;;16.99;81.83;102150.91;6218916;28;20244;-68
2023/10/04 09:40:50;;;;;;;6.20;2.53;;;;;;;17.53;81.01;102161.97;6226241;28;20228;-69
2023/10/04 09:44:23;;;;;;;3.85;2.20;;;;;;;17.65;79.42;102165.38;6221066;28;20245;-70
2023/10/04 09:47:44;;;;;;;6.80;2.45;;;;;;;17.51;79.57;102167.59;6228664;28;20310;-70
2023/10/04 09:51:07;;;;;;;5.40;2.20;;;;;;;18.19;78.27;102168.09;6226807;28;20571;-70
2023/10/04 09:54:28;;;;;;;7.60;2.53;;;;;;;19.20;75.80;102160.31;6210862;28;20501;-71
2023/10/04 09:57:50;;;;;;;6.15;2.15;;;;;;;19.75;72.25;102177.25;6223608;28;20611;-71
2023/10/04 10:01:11;;;;;;;4.07;1.80;;;;;;;19.63;69.10;102173.09;6217471;28;20225;-71
2023/10/04 10:04:37;;;;;;;3.40;1.95;;;;;;;19.87;65.99;102182.28;6214455;28;20510;-70
2023/10/04 10:08:06;;;;;;;6.25;2.60;;;;;;;22.82;58.78;102173.91;6202888;28;20241;-72
2023/10/04 10:11:28;;;;;;;3.53;1.90;;;;;;;22.51;55.89;102178.59;6209883;28;20224;-72
2023/10/04 10:14:50;;;;;;;4.32;2.22;;;;;;;22.74;57.37;102190.50;6221666;28;20248;-70
2023/10/04 10:18:12;;;;;;;5.70;2.38;;;;;;;21.27;59.30;102195.03;6226595;28;20224;-71
2023/10/04 10:22:05;;;;;;;4.43;2.40;;;;;;;20.41;61.22;102207.47;6224980;28;20228;-70
2023/10/04 10:25:29;;;;;;;5.82;2.55;;;;;;;21.46;58.83;102194.69;6224016;28;20236;-70
2023/10/04 10:28:59;;;;;;;3.92;2.88;;;;;;;22.68;56.44;102199.47;6225131;28;20241;-74
2023/10/04 10:32:22;;;;;;;5.28;2.10;;;;;;;22.96;53.90;102202.53;6228161;28;20232;-76
2023/10/04 10:35:57;;;;;;;5.78;2.58;;;;;;;21.04;58.81;102202.25;6227028;28;20693;-76
2023/10/04 10:39:23;;;;;;;6.78;3.03;;;;;;;18.63;65.27;102221.84;6225683;28;20256;-75
2023/10/04 10:43:08;;;;;;;8.57;2.70;;;;;;;18.83;68.17;102219.81;6222532;28;20597;-75
2023/10/04 10:46:29;;;;;;;4.72;2.92;;;;;;;18.69;68.08;102223.94;6223630;28;20228;-73
2023/10/04 10:49:56;;;;;;;4.57;2.28;;;;;;;18.58;69.84;102229.66;6229007;28;20225;-73
2023/10/04 10:53:17;;;;;;;4.30;2.35;;;;;;;18.24;70.68;102217.63;6218245;28;20232;-73
2023/10/04 10:56:39;;;;;;;6.15;2.83;;;;;;;18.00;70.98;102229.09;6230925;28;20232;-72
2023/10/04 11:00:11;;;;;;;8.05;2.35;;;;;;;19.71;69.37;102228.69;6216585;28;20244;-74
2023/10/04 11:03:32;;;;;;;5.65;2.38;;;;;;;21.01;61.28;102230.84;6227602;28;20224;-74
2023/10/04 11:06:56;;;;;;;3.90;2.42;;;;;;;22.24;56.77;102212.94;6230125;28;20229;-74
2023/10/04 11:10:18;;;;;;;6.82;2.88;;;;;;;20.10;62.37;102217.25;6228249;28;20616;-71
2023/10/04 11:13:44;;;;;;;5.03;2.63;;;;;;;18.71;65.19;102226.53;6222659;28;20234;-73
2023/10/04 11:17:06;;;;;;;9.65;3.08;;;;;;;20.14;63.59;102204.94;6211695;28;20308;-75
2023/10/04 11:20:30;;;;;;;4.35;2.30;;;;;;;19.30;64.05;102218.50;6211294;28;20232;-72
2023/10/04 11:23:51;;;;;;;6.10;3.22;;;;;;;18.54;66.67;102209.13;6215152;28;20236;-70
2023/10/04 11:27:19;;;;;;;4.13;2.95;;;;;;;21.30;60.35;102219.38;6217096;28;20228;-72
2023/10/04 11:30:40;;;;;;;5.82;2.92;;;;;;;19.58;59.90;102214.63;6219360;28;20229;-76
2023/10/04 11:34:05;;;;;;;5.30;3.05;;;;;;;18.69;65.68;102226.66;6226999;28;20508;-73
2023/10/04 11:37:28;;;;;;;3.97;2.65;;;;;;;18.61;67.64;102201.16;6222070;28;20248;-73
2023/10/04 11:40:51;;;;;;;8.70;3.33;;;;;;;18.92;64.32;102203.31;6235045;28;20601;-74
2023/10/04 11:44:12;;;;;;;3.78;2.20;;;;;;;18.74;66.56;102197.03;6228245;28;20236;-73
2023/10/04 11:47:34;;;;;;;7.03;2.95;;;;;;;19.37;63.64;102194.13;6217215;28;20224;-76
2023/10/04 11:50:57;;;;;;;5.20;2.80;;;;;;;19.11;63.67;102214.06;6249904;28;21379;-72
2023/10/04 11:54:17;;;;;;;8.93;3.50;;;;;;;19.10;63.09;102206.03;6251347;28;20591;-74
2023/10/04 11:57:39;;;;;;;5.85;3.58;;;;;;;20.31;60.90;102182.09;6238220;28;20235;-73
2023/10/04 12:01:04;;;;;;;4.88;2.92;;;;;;;21.13;59.31;102179.28;6242465;28;20224;-75
2023/10/04 12:04:25;;;;;;;4.18;2.80;;;;;;;24.18;51.16;102175.41;6244282;28;20243;-72
2023/10/04 12:07:48;;;;;;;3.30;2.40;;;;;;;25.05;49.36;102166.84;6249385;28;20228;-73
2023/10/04 12:11:21;;;;;;;6.65;3.05;;;;;;;23.59;50.14;102167.16;6250486;28;20296;-72
2023/10/04 12:14:42;;;;;;;7.80;3.55;;;;;;;21.92;53.59;102193.88;6231796;28;20236;-69
2023/10/04 12:18:03;;;;;;;8.15;3.22;;;;;;;23.26;50.16;102167.69;6251303;28;20219;-72
2023/10/04 12:21:24;;;;;;;6.68;3.50;;;;;;;20.86;53.31;102171.38;6241891;28;20227;-72
2023/10/04 12:24:47;;;;;;;6.32;3.63;;;;;;;21.53;53.47;102168.22;6250275;28;20241;-72
2023/10/04 12:28:08;;;;;;;4.95;3.08;;;;;;;19.61;57.53;102172.41;6248875;28;20219;-72
2023/10/04 12:31:30;;;;;;;5.90;3.05;;;;;;;21.89;54.08;102163.16;6256502;28;20224;-72
2023/10/04 12:53:50;;;;;;;7.30;3.83;;;;;;;19.27;61.70;102163.28;6201983;28;20231;-71
2023/10/04 12:57:11;;;;;;;7.32;3.53;;;;;;;18.91;62.92;102167.97;6270651;28;20608;-71
2023/10/04 13:00:33;;;;;;;4.28;3.38;;;;;;;17.96;65.00;102164.91;6229354;28;20226;-71
2023/10/04 13:03:53;;;;;;;6.20;4.18;;;;;;;18.07;65.42;102166.56;6289846;28;20230;-72
2023/10/04 13:07:14;;;;;;;5.10;3.20;;;;;;;18.22;65.95;102167.78;6246719;28;20238;-71
2023/10/04 13:10:38;;;;;;;6.68;3.22;;;;;;;18.44;65.23;102161.88;6271292;28;20219;-72
2023/10/04 13:13:59;;;;;;;8.18;3.40;;;;;;;18.43;65.00;102170.22;6269305;28;20234;-72
2023/10/04 13:17:21;;;;;;;4.35;2.85;;;;;;;18.30;64.80;102176.91;6244124;28;21582;-72
2023/10/04 13:20:42;;;;;;;4.57;2.95;;;;;;;17.97;65.55;102177.56;6278360;28;20602;-70
2023/10/04 13:24:05;;;;;;;3.97;2.45;;;;;;;17.98;67.07;102168.34;6276564;28;20331;-71
2023/10/04 13:27:30;;;;;;;8.30;3.65;;;;;;;18.17;65.41;102175.56;6288406;28;20251;-71
2023/10/04 13:30:51;;;;;;;5.55;3.35;;;;;;;18.98;64.00;102171.78;6295170;28;20238;-73
2023/10/04 13:34:12;;;;;;;7.47;3.75;;;;;;;18.81;62.53;102164.47;6290744;28;20234;-74
2023/10/04 13:37:33;;;;;;;5.50;3.65;;;;;;;19.26;62.06;102172.47;6293580;28;20565;-69
2023/10/04 13:40:54;;;;;;;4.90;3.17;;;;;;;18.74;61.92;102163.38;6295487;28;20238;-69
2023/10/04 13:44:18;;;;;;;5.93;3.28;;;;;;;19.06;62.50;102156.31;6267851;28;20254;-69
2023/10/04 13:47:41;;;;;;;4.07;2.83;;;;;;;18.63;63.43;102152.69;6297112;28;20230;-71
2023/10/04 13:51:02;;;;;;;7.63;3.08;;;;;;;18.76;63.01;102161.34;6303960;28;20305;-73
2023/10/04 13:54:23;;;;;;;5.70;3.10;;;;;;;18.54;63.18;102156.38;6295702;28;20230;-72
2023/10/04 13:57:44;;;;;;;5.47;2.95;;;;;;;18.24;64.52;102161.16;6300918;28;20321;-70
2023/10/04 14:01:08;;;;;;;4.50;3.40;;;;;;;18.23;65.34;102151.22;6298520;28;20237;-72
2023/10/04 14:04:29;;;;;;;4.63;2.92;;;;;;;18.06;66.38;102154.81;6286956;28;20227;-70
2023/10/04 14:07:51;;;;;;;5.13;3.53;;;;;;;17.67;67.39;102138.81;6315055;28;20305;-70
2023/10/04 14:11:13;;;;;;;6.93;4.05;;;;;;;17.84;68.27;102149.75;6301081;28;20230;-70
2023/10/04 14:14:33;;;;;;;4.20;2.90;;;;;;;17.78;67.89;102157.69;6308771;28;20340;-70
2023/10/04 14:17:57;;;;;;;7.82;3.92;;;;;;;17.69;68.22;102148.53;6308047;28;20514;-71
2023/10/04 14:21:18;;;;;;;7.57;3.47;;;;;;;17.72;68.89;102156.44;6291418;28;20238;-70
2023/10/04 14:24:42;;;;;;;9.90;3.50;;;;;;;17.45;68.28;102159.09;6306831;28;20699;-73
2023/10/04 14:28:03;;;;;;;5.43;3.58;;;;;;;17.58;67.83;102140.56;6306341;28;20234;-72
2023/10/04 14:31:26;;;;;;;5.05;2.83;;;;;;;17.69;67.58;102142.25;6297811;28;20496;-72
2023/10/04 14:34:50;;;;;;;3.53;2.65;;;;;;;17.55;67.71;102139.00;6308266;28;20218;-72
2023/10/04 14:38:11;;;;;;;5.43;3.05;;;;;;;17.42;68.32;102140.31;6311680;28;20231;-73
2023/10/04 14:41:32;;;;;;;8.85;4.45;;;;;;;17.42;68.76;102141.16;6298020;28;20226;-72
2023/10/04 14:44:54;;;;;;;7.30;3.47;;;;;;;17.49;69.36;102128.69;6287614;28;20231;-72
2023/10/04 14:48:15;;;;;;;5.22;2.85;;;;;;;17.42;69.87;102134.84;6307641;28;20235;-71
2023/10/04 14:51:37;;;;;;;10.10;3.42;;;;;;;17.35;70.18;102134.63;6300701;28;20242;-73
2023/10/04 14:55:01;;;;;;;7.55;3.20;;;;;;;17.23;71.20;102137.69;6304463;28;20231;-72
2023/10/04 14:58:22;;;;;;;8.43;3.65;;;;;;;16.97;73.03;102142.03;6301753;28;20619;-73
2023/10/04 15:01:43;;;;;;;10.45;3.83;;;;;;;16.86;75.11;102159.41;6296765;28;20579;-72
2023/10/04 15:05:05;;;;;;;7.80;3.65;;;;;;;16.47;79.87;102153.09;6301957;28;20815;-73
2023/10/04 15:08:28;;;;;;;6.25;3.53;;;;;;;16.33;80.94;102150.78;6302583;28;20262;-71
2023/10/04 15:11:49;;;;;;;10.70;4.73;;;;;;;16.23;83.42;102132.75;6304500;28;20730;-73
2023/10/04 15:15:10;;;;;;;5.70;3.37;;;;;;;16.49;83.13;102132.06;6306283;28;20227;-73
2023/10/04 15:18:32;;;;;;;10.23;4.10;;;;;;;16.61;82.51;102132.75;6308428;28;20234;-73
2023/10/04 15:21:53;;;;;;;9.10;5.07;;;;;;;16.63;82.37;102130.75;6309813;28;20227;-73
2023/10/04 15:25:15;;;;;;;5.95;3.70;;;;;;;16.57;81.39;102128.59;6286080;28;20235;-73
2023/10/04 15:28:36;;;;;;;5.22;3.78;;;;;;;16.63;81.09;102130.75;6300471;28;20222;-72
2023/10/04 15:31:59;;;;;;;6.57;4.13;;;;;;;16.67;80.59;102132.16;6303618;28;20281;-72
2023/10/04 15:35:24;;;;;;;4.40;3.17;;;;;;;16.53;79.67;102128.03;6301655;28;20219;-71
2023/10/04 15:38:46;;;;;;;6.65;4.13;;;;;;;16.47;79.35;102130.44;6302967;28;20230;-72
2023/10/04 15:42:10;;;;;;;3.63;3.03;;;;;;;16.43;78.35;102124.44;6297844;28;20556;-72
2023/10/04 15:45:32;;;;;;;3.00;2.70;;;;;;;16.45;77.97;102118.84;6299052;28;20815;-72
2023/10/04 15:48:53;;;;;;;4.73;3.30;;;;;;;16.36;78.02;102111.53;6301080;28;20315;-72
2023/10/04 15:52:20;;;;;;;6.10;3.60;;;;;;;16.43;78.59;102112.69;6295841;28;20305;-73
2023/10/04 15:55:42;;;;;;;4.97;3.33;;;;;;;16.36;78.06;102103.34;6301239;28;20231;-72
2023/10/04 15:59:04;;;;;;;5.80;3.37;;;;;;;16.31;78.11;102094.78;6301471;28;20309;-72